Time;durP1;ratioP1;P1;durP2;ratioP2;P2;SDS_P1;SDS_P2;PMS_P1;PMS_P2;Temp;Humidity;BMP_temperature;BMP_pressure;BME280_temperature;BME280_humidity;BME280_pressure;Samples;Min_cycle;Max_cycle;Signal;HPM_P1;HPM_P2
2022/12/17 13:08:27;;;;;;;3.47;2.23;;;10.80;70.50;12.70;97170.00;;;;4984298;28;20195;-67
2022/12/17 13:11:30;;;;;;;1.60;1.50;;;11.40;67.80;14.00;97179.00;;;;4988333;28;20248;-67
2022/12/17 13:14:20;;;;;;;;;;;12.20;68.20;13.50;97183.00;;;;4981250;28;20107;-67
2022/12/17 13:17:28;;;;;;;;;;;12.60;63.20;13.50;97189.00;;;;4989341;28;20389;-67
2022/12/17 13:20:30;;;;;;;;;;;12.90;62.20;13.50;97195.00;;;;4991542;28;19965;-67
2022/12/17 13:23:31;;;;;;;;;;;13.10;58.30;14.60;97209.00;;;;4980815;28;19922;-67
2022/12/17 13:26:23;;;;;;;;;;;13.50;59.30;14.00;97209.00;;;;4984220;28;19972;-67
2022/12/17 13:29:23;;;;;;;;;;;13.60;60.30;14.00;97213.00;;;;4982419;28;20018;-67
2022/12/17 13:32:22;;;;;;;1.57;1.10;;;13.70;58.00;14.40;97223.00;;;;4982516;28;20219;-67
2022/12/17 13:35:22;;;;;;;1.63;1.23;;;13.90;63.10;15.30;97243.00;;;;4979328;28;20271;-67
2022/12/17 13:38:21;;;;;;;1.67;1.57;;;14.40;62.10;15.80;97261.00;;;;4981223;28;20751;-67
2022/12/17 13:41:13;;;;;;;1.40;1.10;;;14.90;60.30;15.40;97261.00;;;;4976851;28;20252;-67
2022/12/17 13:44:15;;;;;;;1.27;1.00;;;15.00;58.10;15.20;97253.00;;;;4981869;28;20253;-67
2022/12/17 13:47:17;;;;;;;2.63;2.10;;;15.20;55.80;15.30;97261.00;;;;4975656;28;20268;-67
2022/12/17 13:50:22;;;;;;;2.43;1.73;;;15.00;55.10;15.00;97262.00;;;;4986750;28;21011;-65
2022/12/17 13:53:27;;;;;;;3.43;3.13;;;14.70;67.40;14.60;97269.00;;;;4976185;28;20202;-65
2022/12/17 13:56:24;;;;;;;8.30;4.53;;;14.60;73.60;15.00;97272.00;;;;4993624;28;20217;-65
2022/12/17 13:59:20;;;;;;;1.83;1.63;;;14.40;72.70;14.60;97278.00;;;;4979322;28;20832;-65
2022/12/17 14:02:25;;;;;;;1.47;1.37;;;14.50;54.20;13.20;97269.00;;;;4985526;28;20211;-68
2022/12/17 14:05:25;;;;;;;2.87;1.80;;;13.50;54.30;13.60;97285.00;;;;4984673;28;20297;-68
2022/12/17 14:08:18;;;;;;;2.43;2.13;;;13.10;56.00;13.40;97285.00;;;;4976377;28;20285;-69
2022/12/17 14:14:31;;;;;;;1.80;1.50;;;13.10;59.10;13.60;97297.00;;;;4977704;28;20298;-68
2022/12/17 14:17:25;;;;;;;1.33;1.23;;;13.00;60.40;13.30;97304.00;;;;4977778;28;20235;-68
2022/12/17 14:20:16;;;;;;;3.80;3.37;;;13.00;62.00;11.70;97306.00;;;;4980408;28;20663;-68
2022/12/17 14:23:08;;;;;;;5.87;4.00;;;12.80;60.50;11.00;97297.00;;;;4981558;28;20448;-69
2022/12/17 14:25:57;;;;;;;7.40;3.93;;;11.80;62.40;10.20;97351.00;;;;4973440;28;20261;-68
2022/12/17 14:28:47;;;;;;;;;;;11.40;64.50;9.00;97346.00;;;;4982756;28;20364;-68
2022/12/17 14:31:37;;;;;;;;;;;10.30;68.90;8.30;97352.00;;;;4991592;28;19929;-68
2022/12/17 14:34:28;;;;;;;3.43;3.13;;;9.20;73.60;5.10;97341.00;;;;4987860;28;20212;-67
2022/12/17 14:37:23;;;;;;;2.80;2.50;;;7.70;79.10;3.50;97336.00;;;;4985022;28;20206;-68
2022/12/17 14:40:15;;;;;;;4.23;3.33;;;5.80;87.20;3.30;97335.00;;;;4977636;28;20250;-68
2022/12/17 14:43:04;;;;;;;4.30;2.70;;;4.50;93.30;2.70;97332.00;;;;4989382;28;20235;-68
2022/12/17 14:49:15;;;;;;;5.20;3.33;;;2.70;99.90;2.80;97365.00;;;;4973404;28;20596;-68
2022/12/17 14:52:14;;;;;;;3.50;3.20;;;2.00;99.90;2.30;97347.00;;;;4979836;28;20696;-68
2022/12/17 14:55:24;;;;;;;4.10;3.60;;;2.20;99.90;2.40;97366.00;;;;4987534;28;20271;-67
2022/12/17 14:58:20;;;;;;;6.67;3.83;;;1.70;99.90;2.50;97372.00;;;;4984282;28;20446;-67
2022/12/17 15:01:13;;;;;;;4.03;2.80;;;2.20;99.90;2.00;97375.00;;;;4986299;28;20477;-66
2022/12/17 15:04:03;;;;;;;2.80;2.60;;;2.40;99.90;1.80;97380.00;;;;4973426;28;20450;-66
2022/12/17 15:06:55;;;;;;;3.00;2.60;;;1.30;99.90;1.40;97378.00;;;;4974856;28;20423;-66
2022/12/17 15:09:45;;;;;;;2.13;1.93;;;1.40;99.90;1.40;97388.00;;;;4989014;28;20461;-66
2022/12/17 15:12:34;;;;;;;3.07;1.90;;;1.30;99.90;0.80;97390.00;;;;4988857;28;20437;-69
2022/12/17 15:15:22;;;;;;;2.83;2.40;;;1.20;99.90;0.60;97384.00;;;;4979562;28;20430;-67
2022/12/17 15:18:11;;;;;;;5.93;1.80;;;0.80;99.90;0.70;97392.00;;;;4981578;28;20784;-64
2022/12/17 15:21:00;;;;;;;2.97;1.67;;;0.50;99.90;0.60;97403.00;;;;4985369;28;20505;-69
2022/12/17 15:23:49;;;;;;;3.90;2.97;;;0.70;99.90;0.50;97408.00;;;;4985293;28;20442;-65
2022/12/17 15:26:39;;;;;;;3.27;2.97;;;0.40;99.90;0.70;97410.00;;;;4986062;28;20430;-64
2022/12/17 15:29:28;;;;;;;3.97;2.87;;;0.00;99.90;1.00;97412.00;;;;4976552;28;20454;-64
2022/12/17 15:32:19;;;;;;;6.27;3.50;;;0.50;99.90;1.00;97424.00;;;;4991010;28;20453;-65
2022/12/17 15:35:13;;;;;;;2.70;2.07;;;0.40;99.90;0.50;97426.00;;;;4983072;28;20480;-65
2022/12/17 15:38:03;;;;;;;1.57;1.47;;;0.10;99.90;0.60;97435.00;;;;4984569;28;20430;-66
2022/12/17 15:40:51;;;;;;;2.03;1.93;;;-0.30;99.90;0.00;97433.00;;;;4974124;28;20514;-66
2022/12/17 15:43:40;;;;;;;4.37;1.77;;;-0.10;99.90;0.00;97436.00;;;;4983784;28;20480;-69
2022/12/17 15:46:29;;;;;;;3.13;2.80;;;-0.10;99.90;0.30;97429.00;;;;4986539;28;20493;-65
2022/12/17 15:49:18;;;;;;;5.87;3.40;;;-0.30;99.90;-0.10;97432.00;;;;4982955;28;20976;-64
2022/12/17 15:52:07;;;;;;;3.63;3.30;;;-0.20;99.90;0.00;97440.00;;;;4980373;28;21154;-65
2022/12/17 15:54:55;;;;;;;2.83;2.30;;;-0.10;99.90;0.40;97454.00;;;;4992124;28;20512;-66
2022/12/17 15:57:44;;;;;;;6.17;3.90;;;-0.30;99.90;0.20;97451.00;;;;4989220;28;20436;-66
2022/12/17 16:00:35;;;;;;;3.60;2.83;;;-0.40;99.90;0.20;97443.00;;;;4982608;28;20548;-66
2022/12/17 16:03:23;;;;;;;4.43;3.77;;;-0.50;99.90;0.30;97457.00;;;;4980187;28;20438;-66
2022/12/17 16:06:13;;;;;;;4.30;2.93;;;-0.50;99.90;0.40;97464.00;;;;4984233;28;20430;-66
2022/12/17 16:09:01;;;;;;;2.60;2.30;;;-0.50;99.90;0.60;97464.00;;;;4988409;28;20655;-66
2022/12/17 16:11:53;;;;;;;2.07;1.70;;;-0.40;99.90;0.10;97469.00;;;;4988829;28;20513;-64
2022/12/17 16:14:41;;;;;;;3.70;2.77;;;-0.50;99.90;0.40;97464.00;;;;4982290;28;20567;-64
2022/12/17 16:17:31;;;;;;;2.97;2.07;;;-0.20;99.90;0.40;97477.00;;;;4982614;28;20427;-66
2022/12/17 16:20:20;;;;;;;2.50;2.30;;;-0.30;99.90;0.40;97486.00;;;;4984853;28;20469;-63
2022/12/17 16:23:09;;;;;;;2.33;1.63;;;-0.50;99.90;0.30;97497.00;;;;4989226;28;20426;-64
2022/12/17 16:25:59;;;;;;;3.60;2.10;;;-0.50;99.90;0.30;97492.00;;;;4987398;28;20427;-64
2022/12/17 16:28:47;;;;;;;4.57;2.87;;;-0.60;99.90;0.30;97495.00;;;;4977658;28;20941;-64
2022/12/17 16:31:36;;;;;;;2.53;1.73;;;-0.60;99.90;0.50;97497.00;;;;4988772;28;20504;-64
2022/12/17 16:34:26;;;;;;;2.43;2.23;;;0.20;99.90;0.60;97500.00;;;;4984344;28;20425;-64
2022/12/17 16:37:15;;;;;;;4.03;2.83;;;-0.50;99.90;0.40;97515.00;;;;4987776;28;20813;-64
2022/12/17 16:40:05;;;;;;;3.07;2.10;;;-0.50;99.90;0.40;97512.00;;;;4978357;28;20458;-64
2022/12/17 16:42:55;;;;;;;4.10;2.90;;;-0.50;99.90;0.30;97511.00;;;;4985419;28;20942;-63
2022/12/17 16:45:49;;;;;;;3.97;3.07;;;-0.30;99.90;0.20;97516.00;;;;4977696;28;20544;-64
2022/12/17 16:48:39;;;;;;;4.43;2.43;;;-0.70;99.90;0.20;97522.00;;;;4979989;28;20862;-65
2022/12/17 16:51:30;;;;;;;2.33;1.93;;;-0.60;99.90;0.00;97513.00;;;;4979203;28;21093;-64
2022/12/17 16:54:21;;;;;;;17.83;11.17;;;-0.70;99.90;-0.30;97516.00;;;;4984217;28;21010;-64
2022/12/17 16:57:10;;;;;;;5.33;2.13;;;-0.60;99.90;0.00;97524.00;;;;4988489;28;20437;-64
2022/12/17 16:59:58;;;;;;;4.07;3.67;;;-0.80;99.90;0.10;97539.00;;;;4985953;28;20457;-64
2022/12/17 17:02:47;;;;;;;6.20;4.07;;;-0.70;99.90;0.00;97533.00;;;;4983210;28;20430;-64
2022/12/17 17:05:40;;;;;;;27.63;12.67;;;-0.80;99.90;-0.30;97532.00;;;;4982456;28;20437;-64
2022/12/17 17:08:30;;;;;;;24.73;13.00;;;-0.90;99.90;-0.20;97543.00;;;;4987054;28;20499;-64
2022/12/17 17:11:21;;;;;;;14.07;5.77;;;-1.10;99.90;-0.30;97537.00;;;;4981397;28;20485;-64
2022/12/17 17:14:10;;;;;;;6.23;4.10;;;-0.90;99.90;-0.50;97535.00;;;;5003508;28;20430;-64
2022/12/17 17:16:59;;;;;;;5.70;3.77;;;-1.20;99.90;-0.40;97556.00;;;;4979774;28;20823;-62
2022/12/17 17:19:48;;;;;;;2.97;2.67;;;-1.30;99.90;-0.30;97557.00;;;;4989985;28;20473;-64
2022/12/17 17:22:36;;;;;;;3.80;3.30;;;-1.20;99.90;-0.30;97575.00;;;;4976680;28;21579;-65
2022/12/17 17:25:27;;;;;;;3.70;3.40;;;;;-0.30;97575.00;;;;4980801;28;21238;-64
2022/12/17 17:28:26;;;;;;;3.97;3.27;;;-1.10;99.90;-0.30;97570.00;;;;4984962;28;20961;-65
2022/12/17 17:31:16;;;;;;;3.47;2.90;;;-1.20;99.90;-0.40;97582.00;;;;4984034;28;20853;-62
2022/12/17 17:34:09;;;;;;;4.60;4.27;;;-1.20;99.90;-0.60;97597.00;;;;4990251;28;20437;-64
2022/12/17 17:36:58;;;;;;;3.77;3.33;;;-0.80;99.90;-1.00;97592.00;;;;5019212;28;20577;-64
2022/12/17 17:39:47;;;;;;;3.17;2.10;;;-1.30;99.90;-0.90;97596.00;;;;4983912;28;21030;-66
2022/12/17 17:42:37;;;;;;;3.73;3.00;;;-1.40;99.90;-0.80;97601.00;;;;4976390;28;20458;-65
2022/12/17 17:45:26;;;;;;;4.17;2.20;;;-1.50;99.90;-0.80;97611.00;;;;4986905;28;20462;-65
2022/12/17 17:48:14;;;;;;;4.83;2.57;;;-1.40;99.90;-0.80;97619.00;;;;4974702;28;20499;-65
2022/12/17 17:51:06;;;;;;;2.73;2.07;;;-1.40;99.90;-0.90;97618.00;;;;4985498;28;20450;-64
2022/12/17 17:53:55;;;;;;;2.97;2.07;;;-1.40;99.90;-0.70;97613.00;;;;4983032;28;20447;-64
2022/12/17 17:56:45;;;;;;;3.13;2.83;;;-1.50;99.90;-1.00;97617.00;;;;4987347;28;20950;-65
2022/12/17 17:59:35;;;;;;;4.97;3.73;;;-1.50;99.90;-1.30;97610.00;;;;4979797;28;20534;-65
2022/12/17 18:02:24;;;;;;;4.57;3.77;;;-1.70;99.90;-1.40;97618.00;;;;4980039;28;20466;-65
2022/12/17 18:05:13;;;;;;;3.57;2.50;;;-1.80;99.90;-1.80;97618.00;;;;4977936;28;20438;-65
2022/12/17 18:08:01;;;;;;;3.80;2.63;;;-1.90;99.90;-1.60;97627.00;;;;4980382;28;20487;-65
2022/12/17 18:10:58;;;;;;;5.43;2.87;;;-2.00;99.90;-1.40;97636.00;;;;4981679;28;20450;-65
2022/12/17 18:13:55;;;;;;;4.10;3.00;;;-2.00;99.90;-1.30;97639.00;;;;4990365;28;20441;-64
2022/12/17 18:16:47;;;;;;;3.80;2.77;;;-2.00;99.90;-1.20;97652.00;;;;4992627;28;20495;-65
2022/12/17 18:19:36;;;;;;;2.77;2.53;;;-2.10;99.90;-1.70;97648.00;;;;4984268;28;20446;-65
2022/12/17 18:22:24;;;;;;;2.83;1.70;;;-2.00;99.90;-1.90;97647.00;;;;4985242;28;20470;-65
2022/12/17 18:25:13;;;;;;;1.63;1.27;;;-2.20;99.90;-2.00;97652.00;;;;4985241;28;20442;-65
2022/12/17 18:28:02;;;;;;;3.80;2.57;;;-2.20;99.90;-2.00;97640.00;;;;4978304;28;20498;-68
2022/12/17 18:30:51;;;;;;;3.73;3.20;;;-2.30;99.90;-2.10;97652.00;;;;4977382;28;20569;-65
2022/12/17 18:33:45;;;;;;;3.20;2.60;;;-2.10;99.90;-1.70;97667.00;;;;4988717;28;20426;-66
2022/12/17 18:36:37;;;;;;;2.67;2.53;;;-2.40;99.90;-1.70;97661.00;;;;4989998;28;20414;-65
2022/12/17 18:39:26;;;;;;;5.73;3.60;;;-2.30;99.90;-1.80;97669.00;;;;4987305;28;20462;-66
2022/12/17 18:45:22;;;;;;;2.47;2.07;;;-2.30;99.90;-1.70;97680.00;;;;4980006;28;20515;-65
2022/12/17 18:48:11;;;;;;;2.47;2.27;;;-2.30;99.90;-1.50;97678.00;;;;4976968;28;20469;-66
2022/12/17 18:51:06;;;;;;;5.23;2.33;;;-2.50;99.90;-1.40;97686.00;;;;4974004;28;20466;-65
2022/12/17 18:53:58;;;;;;;2.33;2.13;;;-2.20;99.90;-1.60;97683.00;;;;4987732;28;20430;-65
2022/12/17 18:56:47;;;;;;;2.73;2.43;;;-2.00;99.90;-1.40;97685.00;;;;4987048;28;20969;-65
2022/12/17 18:59:54;;;;;;;3.60;2.90;;;-2.30;99.90;-1.40;97704.00;;;;4989232;28;20469;-65
2022/12/17 19:02:44;;;;;;;4.07;2.73;;;-2.20;99.90;-1.60;97712.00;;;;4989318;28;20994;-66
2022/12/17 19:05:32;;;;;;;3.27;2.97;;;-2.20;99.90;-1.30;97711.00;;;;4979004;28;20419;-65
2022/12/17 19:08:22;;;;;;;4.27;2.53;;;-2.10;99.90;-1.20;97719.00;;;;4980390;28;20476;-65
2022/12/17 19:11:13;;;;;;;3.23;2.90;;;-2.20;99.90;-1.30;97714.00;;;;4981843;28;20521;-65
2022/12/17 19:14:02;;;;;;;3.43;3.20;;;-2.10;99.90;-1.50;97707.00;;;;4978927;28;20450;-65
2022/12/17 19:16:53;;;;;;;4.27;3.30;;;-2.10;99.90;-1.80;97720.00;;;;4988313;28;20471;-65
2022/12/17 19:19:43;;;;;;;3.17;2.90;;;-2.20;99.90;-2.30;97712.00;;;;4981835;28;21220;-65
2022/12/17 19:22:31;;;;;;;1.37;1.27;;;-2.30;99.90;-2.60;97724.00;;;;4979002;28;20523;-66
2022/12/17 19:25:21;;;;;;;3.80;3.10;;;-2.50;99.90;-2.50;97718.00;;;;4974333;28;20775;-66
2022/12/17 19:28:10;;;;;;;5.47;2.27;;;-2.70;99.90;-2.20;97723.00;;;;4979623;28;20442;-66
2022/12/17 19:30:59;;;;;;;5.07;3.53;;;-2.70;99.90;-2.30;97729.00;;;;4975521;28;20447;-65
2022/12/17 19:33:49;;;;;;;2.13;1.87;;;-2.70;99.90;-2.10;97740.00;;;;4982994;28;20969;-65
2022/12/17 19:36:39;;;;;;;4.93;2.67;;;-2.40;99.90;-2.30;97723.00;;;;4989203;28;20423;-64
2022/12/17 19:39:28;;;;;;;2.20;1.97;;;-2.90;99.90;-2.50;97715.00;;;;4981841;28;20510;-64
2022/12/17 19:42:24;;;;;;;2.87;2.63;;;-2.90;99.90;-2.50;97735.00;;;;4986583;28;20494;-65
2022/12/17 19:45:13;;;;;;;3.30;2.83;;;-2.90;99.90;-2.50;97732.00;;;;4982664;28;20446;-65
2022/12/17 19:48:02;;;;;;;2.70;2.43;;;-2.80;99.90;-2.20;97752.00;;;;4991603;28;20438;-65
2022/12/17 19:50:56;;;;;;;2.63;2.40;;;-2.80;99.90;-2.00;97746.00;;;;4989920;28;20438;-66
2022/12/17 19:53:46;;;;;;;4.37;2.80;;;-2.70;99.90;-1.90;97747.00;;;;4984001;28;20473;-66
2022/12/17 19:56:35;;;;;;;3.03;2.47;;;-2.70;99.90;-2.10;97739.00;;;;4985477;28;20491;-65
2022/12/17 19:59:27;;;;;;;2.90;2.17;;;-2.70;99.90;-2.30;97744.00;;;;4993144;28;20450;-66
2022/12/17 20:02:16;;;;;;;1.67;1.57;;;-3.10;99.90;-2.70;97740.00;;;;4982159;28;20473;-65
2022/12/17 20:05:06;;;;;;;2.40;1.83;;;-2.80;99.90;-3.00;97740.00;;;;4979334;28;20438;-66
2022/12/17 20:07:55;;;;;;;2.40;1.60;;;-3.00;99.90;-2.80;97755.00;;;;4973655;28;21306;-65
2022/12/17 20:10:44;;;;;;;3.33;2.33;;;-3.00;99.90;-2.40;97762.00;;;;4989300;28;20555;-65
2022/12/17 20:13:32;;;;;;;3.97;2.93;;;-3.20;99.90;-2.40;97770.00;;;;4984992;28;20450;-65
2022/12/17 20:16:22;;;;;;;4.33;2.73;;;-3.00;99.90;-2.40;97772.00;;;;4987965;28;20458;-65
2022/12/17 20:19:15;;;;;;;6.43;2.97;;;-3.00;99.90;-2.60;97780.00;;;;4980970;28;20454;-65
2022/12/17 20:22:05;;;;;;;2.33;2.20;;;-3.10;99.90;-2.60;97781.00;;;;4993653;28;20480;-65
2022/12/17 20:24:54;;;;;;;2.70;2.53;;;-3.10;99.90;-2.90;97772.00;;;;4981169;28;20445;-65
2022/12/17 20:27:43;;;;;;;3.10;2.30;;;-3.20;99.90;-2.70;97773.00;;;;4985797;28;20430;-64
2022/12/17 20:30:32;;;;;;;2.93;2.30;;;-3.30;99.90;-2.50;97777.00;;;;4984011;28;20434;-65
2022/12/17 20:33:22;;;;;;;2.50;2.30;;;-3.20;99.90;-2.50;97780.00;;;;4982146;28;20468;-65
2022/12/17 20:36:14;;;;;;;3.53;3.07;;;-3.20;99.90;-2.30;97776.00;;;;4979877;28;20446;-64
2022/12/17 20:39:03;;;;;;;2.53;2.33;;;-3.10;99.90;-2.20;97793.00;;;;4985667;28;20494;-65
2022/12/17 20:41:52;;;;;;;1.70;1.60;;;-3.00;99.90;-2.10;97798.00;;;;4981137;28;20500;-65
2022/12/17 20:44:41;;;;;;;6.17;3.70;;;-3.00;99.90;-2.40;97800.00;;;;4980985;28;20494;-64
2022/12/17 20:47:30;;;;;;;4.53;3.83;;;-3.00;99.90;-2.50;97802.00;;;;4995649;28;20446;-65
2022/12/17 20:50:20;;;;;;;6.57;3.63;;;-3.00;99.90;-2.90;97801.00;;;;4975656;28;20458;-65
2022/12/17 20:53:09;;;;;;;3.10;2.90;;;-3.10;99.90;-2.90;97797.00;;;;5000193;28;20462;-65
2022/12/17 20:56:02;;;;;;;2.93;2.67;;;-3.20;99.90;-2.80;97802.00;;;;4980445;28;20484;-65
2022/12/17 20:58:54;;;;;;;3.17;2.93;;;-3.20;99.90;-3.10;97805.00;;;;4982806;28;20460;-66
2022/12/17 21:01:45;;;;;;;2.33;2.13;;;-3.30;99.90;-3.10;97818.00;;;;4981954;28;20442;-66
2022/12/17 21:04:35;;;;;;;4.07;3.23;;;-3.40;99.90;-2.90;97822.00;;;;4982507;28;21036;-64
2022/12/17 21:07:26;;;;;;;2.83;2.27;;;-3.40;99.90;-2.70;97825.00;;;;4977324;28;20502;-65
2022/12/17 21:10:15;;;;;;;3.30;3.00;;;-3.40;99.90;-2.80;97823.00;;;;4983467;28;20442;-65
2022/12/17 21:16:12;;;;;;;2.57;2.00;;;-3.40;99.90;-2.70;97825.00;;;;4980150;28;20473;-65
2022/12/17 21:19:02;;;;;;;3.90;2.43;;;-3.40;99.90;-2.70;97816.00;;;;4985122;28;20533;-65
2022/12/17 21:21:51;;;;;;;5.17;3.77;;;-3.40;99.90;-3.30;97830.00;;;;4982213;28;20865;-65
2022/12/17 21:24:43;;;;;;;4.00;3.63;;;-3.40;99.90;-3.40;97823.00;;;;4979714;28;20478;-64
2022/12/17 21:27:32;;;;;;;3.80;3.50;;;-3.50;99.90;-3.60;97827.00;;;;4980765;28;20426;-65
2022/12/17 21:30:21;;;;;;;2.37;2.27;;;-3.70;99.90;-3.70;97826.00;;;;4982149;28;20461;-65
2022/12/17 21:33:09;;;;;;;2.13;1.93;;;-3.70;99.90;-4.20;97824.00;;;;4982346;28;20442;-66
2022/12/17 21:35:59;;;;;;;2.07;1.63;;;-4.00;99.90;-3.80;97832.00;;;;4988242;28;20466;-66
2022/12/17 21:38:49;;;;;;;1.83;1.70;;;-4.10;99.90;-3.40;97828.00;;;;4985570;28;20439;-65
2022/12/17 21:41:42;;;;;;;2.63;2.53;;;-4.00;99.90;-3.30;97841.00;;;;4983317;28;20487;-66
2022/12/17 21:44:31;;;;;;;3.80;3.10;;;-4.00;99.90;-3.10;97842.00;;;;4983750;28;20504;-64
2022/12/17 21:47:20;;;;;;;3.03;2.77;;;-3.90;99.90;-3.20;97846.00;;;;4983261;28;20438;-66
2022/12/17 21:50:09;;;;;;;2.93;2.33;;;-3.20;99.90;-3.00;97858.00;;;;4983731;28;20550;-66
2022/12/17 21:52:58;;;;;;;2.23;2.13;;;-3.80;99.90;-3.20;97858.00;;;;4983274;28;20977;-66
2022/12/17 21:55:47;;;;;;;1.53;1.43;;;-3.70;99.90;-3.40;97854.00;;;;4982129;28;20471;-65
2022/12/17 21:58:37;;;;;;;3.93;2.03;;;-3.80;99.90;-3.30;97872.00;;;;4978215;28;20508;-65
2022/12/17 22:01:30;;;;;;;2.60;2.37;;;-3.80;99.90;-3.40;97867.00;;;;4991767;28;20961;-65
2022/12/17 22:04:19;;;;;;;2.93;2.50;;;-3.90;99.90;-3.30;97874.00;;;;4980393;28;20466;-65
2022/12/17 22:07:08;;;;;;;2.80;1.90;;;-3.90;99.90;-3.30;97878.00;;;;4983079;28;20418;-66
2022/12/17 22:09:56;;;;;;;3.43;2.20;;;-3.90;99.90;-3.50;97878.00;;;;4988035;28;20483;-65
2022/12/17 22:15:56;;;;;;;1.53;1.47;;;-4.00;99.90;-3.90;97866.00;;;;4978386;28;20798;-66
2022/12/17 22:18:45;;;;;;;5.07;2.87;;;-4.00;99.90;-3.70;97866.00;;;;4978606;28;20933;-64
2022/12/17 22:21:35;;;;;;;2.80;2.27;;;-4.10;99.90;-3.30;97878.00;;;;4987482;28;20441;-64
2022/12/17 22:24:24;;;;;;;3.87;2.83;;;-4.00;99.90;-3.30;97888.00;;;;4985503;28;20471;-64
2022/12/17 22:27:12;;;;;;;2.17;2.07;;;-4.00;99.90;-3.50;97887.00;;;;4983248;28;20495;-65
2022/12/17 22:33:09;;;;;;;1.30;1.20;;;-4.10;99.90;-4.40;97862.00;;;;4983639;28;20445;-69
2022/12/17 22:36:01;;;;;;;1.93;1.83;;;-4.30;99.90;-3.70;97877.00;;;;4980485;28;20433;-66
2022/12/17 22:38:50;;;;;;;1.80;1.70;;;-4.30;99.90;-3.50;97894.00;;;;4979646;28;20587;-65
2022/12/17 22:44:47;;;;;;;2.53;1.73;;;-4.20;99.90;-3.80;97892.00;;;;4989622;28;20519;-66
2022/12/17 22:47:40;;;;;;;2.27;2.07;;;-4.20;99.90;-4.20;97889.00;;;;4985240;28;20419;-65
2022/12/17 22:50:30;;;;;;;2.40;2.30;;;-4.20;99.90;-4.50;97886.00;;;;4983929;28;20446;-68
2022/12/17 22:53:19;;;;;;;1.80;1.70;;;-4.40;99.90;-4.60;97892.00;;;;4990926;28;20807;-65
2022/12/17 22:56:09;;;;;;;5.17;2.30;;;-4.50;99.90;-4.50;97897.00;;;;4990347;28;21045;-66
2022/12/17 22:59:01;;;;;;;0.93;0.93;;;-4.60;99.90;-4.50;97888.00;;;;4983460;28;20430;-65
2022/12/17 23:01:50;;;;;;;3.47;1.97;;;-4.70;99.90;-4.10;97900.00;;;;4982537;28;20511;-65
2022/12/17 23:04:38;;;;;;;1.83;1.50;;;-4.60;99.90;-4.00;97902.00;;;;4977317;28;20454;-66
2022/12/17 23:07:28;;;;;;;4.60;2.77;;;-4.60;99.90;-3.90;97899.00;;;;4979846;28;20438;-65
2022/12/17 23:10:20;;;;;;;3.67;2.13;;;-4.50;99.90;-4.20;97895.00;;;;4978922;28;20822;-66
2022/12/17 23:13:09;;;;;;;2.73;2.33;;;-4.50;99.90;-4.40;97895.00;;;;4982950;28;20476;-65
2022/12/17 23:15:57;;;;;;;0.67;0.67;;;-4.60;99.90;-5.00;97892.00;;;;4982233;28;20423;-68
2022/12/17 23:18:48;;;;;;;2.20;2.10;;;-4.70;99.90;-5.00;97887.00;;;;4975211;28;20439;-69
2022/12/17 23:21:37;;;;;;;2.57;2.07;;;-4.90;99.90;-4.70;97887.00;;;;4980974;28;20439;-66
2022/12/17 23:24:27;;;;;;;2.20;2.07;;;-5.00;99.90;-4.30;97902.00;;;;4986689;28;20576;-65
2022/12/17 23:27:16;;;;;;;2.50;2.30;;;-4.90;99.90;-4.40;97893.00;;;;4980357;28;20434;-65
2022/12/17 23:30:09;;;;;;;2.57;2.37;;;-4.80;99.90;-4.30;97895.00;;;;4982698;28;20955;-65
2022/12/17 23:32:58;;;;;;;2.73;1.57;;;-4.80;99.90;-4.10;97905.00;;;;4989615;28;20431;-65
2022/12/17 23:35:46;;;;;;;2.27;2.03;;;-4.70;99.90;-4.10;97907.00;;;;4981902;28;21014;-65
2022/12/17 23:38:36;;;;;;;2.77;2.57;;;-4.60;99.90;-4.00;97903.00;;;;4974063;28;20439;-65
2022/12/17 23:41:29;;;;;;;2.13;2.03;;;-4.50;99.90;-4.00;97915.00;;;;4986495;28;20441;-64
2022/12/17 23:44:17;;;;;;;1.57;1.53;;;-4.50;99.90;-3.90;97911.00;;;;4976397;28;20516;-64
2022/12/17 23:47:06;;;;;;;2.03;1.83;;;-4.40;99.90;-4.30;97912.00;;;;4989223;28;20434;-65
2022/12/17 23:49:55;;;;;;;1.93;1.83;;;-4.50;99.90;-4.20;97915.00;;;;4978772;28;20498;-65
2022/12/17 23:52:43;;;;;;;1.93;1.80;;;-4.50;99.90;-4.30;97917.00;;;;4982959;28;20495;-66
2022/12/17 23:55:33;;;;;;;2.23;2.13;;;-4.60;99.90;-4.60;97917.00;;;;4988852;28;20507;-65
2022/12/17 23:58:23;;;;;;;4.60;4.10;;;-4.80;99.90;-4.80;97909.00;;;;4988675;28;20523;-66
